Christmas, Florida
Current Conditions -  °F | °C
As of 7:58 PM on Saturday 22 Nov 2014 (Local Time) from KTTS Reporting Station
Overcast Overcast  
Wind Chill: 72°   Ceiling: 2700
Heat Index: 72°   Visibility: 10mi
Dew Point: 64°   Wind: 10mph
Humidity: 78%   Direction: 110°ESE
Pressure: 30.19"   Gusts: NA
Location:  28.54°N, 81°W
Report Text: KTTS 230058Z AUTO 11009KT 10SM BKN027 OVC033 22/18 A3019 RMK AO2 SLP226
Loading
Personal Weather Stations






























Interactive Weather Map New forecast layout! Learn more

10-Day Weather Forecast

Advertisements
Track Severe Weather on mobile